Time;durP1;ratioP1;P1;durP2;ratioP2;P2;SDS_P1;SDS_P2;PMS_P1;PMS_P2;Temp;Humidity;BMP_temperature;BMP_pressure;BME280_temperature;BME280_humidity;BME280_pressure;Samples;Min_cycle;Max_cycle;Signal;HPM_P1;HPM_P2
2021/01/19 00:02:01;;;;;;;10.37;7.50;;;;;;;-6.17;100.00;96925.75;5112802;28;20484;-83
2021/01/19 00:04:29;;;;;;;10.87;7.50;;;;;;;-6.25;100.00;96931.91;5113086;28;20807;-82
2021/01/19 00:06:56;;;;;;;11.30;7.83;;;;;;;-6.24;100.00;96938.72;5112940;28;20457;-82
2021/01/19 00:09:23;;;;;;;11.47;7.27;;;;;;;-6.49;100.00;96932.56;5113003;28;20441;-82
2021/01/19 00:11:50;;;;;;;9.47;7.33;;;;;;;-6.54;100.00;96932.69;5111971;28;20498;-83
2021/01/19 00:14:17;;;;;;;10.27;6.83;;;;;;;-6.62;100.00;96937.13;5113169;28;20783;-82
2021/01/19 00:16:49;;;;;;;10.57;7.40;;;;;;;-6.50;100.00;96941.94;5113105;27;20983;-83
2021/01/19 00:19:16;;;;;;;10.13;6.87;;;;;;;-6.27;100.00;96938.81;5112760;28;20480;-83
2021/01/19 00:21:44;;;;;;;11.17;7.83;;;;;;;-6.41;100.00;96938.31;5113054;28;20472;-83
2021/01/19 00:24:11;;;;;;;11.03;7.73;;;;;;;-6.50;100.00;96941.13;5112852;28;20516;-83
2021/01/19 00:26:39;;;;;;;12.43;7.13;;;;;;;-6.39;100.00;96939.13;5112531;28;20889;-83
2021/01/19 00:29:05;;;;;;;10.37;7.83;;;;;;;-6.59;100.00;96949.84;5112496;28;20453;-82
2021/01/19 00:31:32;;;;;;;8.90;6.67;;;;;;;-6.51;100.00;96955.63;5112574;28;20449;-83
2021/01/19 00:33:59;;;;;;;9.40;6.67;;;;;;;-6.56;100.00;96960.00;5112665;28;20536;-83
2021/01/19 00:36:28;;;;;;;9.57;7.50;;;;;;;-6.55;100.00;96960.81;5330111;22;20537;-83
2021/01/19 00:38:55;;;;;;;11.40;8.30;;;;;;;-6.29;100.00;96963.59;4984522;28;20488;-83
2021/01/19 00:41:22;;;;;;;11.23;8.23;;;;;;;-6.36;100.00;96962.06;4973434;28;20813;-81
2021/01/19 00:43:49;;;;;;;11.40;6.90;;;;;;;-6.91;100.00;96957.44;4973149;28;20436;-81
2021/01/19 00:46:16;;;;;;;11.17;6.80;;;;;;;-6.67;100.00;96971.38;4973347;28;20452;-81
2021/01/19 00:48:46;;;;;;;7.77;6.23;;;;;;;-6.50;100.00;96977.75;4973164;28;20445;-81
2021/01/19 00:51:13;;;;;;;8.90;6.20;;;;;;;-6.62;100.00;96974.66;4973062;28;20452;-81
2021/01/19 00:53:40;;;;;;;11.80;8.20;;;;;;;-6.83;100.00;96973.44;4973216;28;20502;-81
2021/01/19 00:56:08;;;;;;;8.90;6.80;;;;;;;-6.92;100.00;96966.84;4973279;28;20460;-80
2021/01/19 00:58:35;;;;;;;11.73;9.07;;;;;;;-6.89;100.00;96964.22;4971243;28;20452;-80
2021/01/19 01:01:02;;;;;;;13.33;7.43;;;;;;;-6.86;100.00;96969.22;4971908;28;20484;-82
2021/01/19 01:03:41;;;;;;;10.63;7.53;;;;;;;-6.51;100.00;96976.09;4973111;28;20543;-81
2021/01/19 01:06:08;;;;;;;6.73;6.03;;;;;;;-6.71;100.00;96974.00;4972773;28;20452;-81
2021/01/19 01:08:34;;;;;;;10.70;7.33;;;;;;;-6.48;100.00;96970.91;4973373;28;20475;-81
2021/01/19 01:11:01;;;;;;;8.23;6.30;;;;;;;-6.65;100.00;96965.34;4973095;28;20455;-81
2021/01/19 01:13:29;;;;;;;10.50;6.93;;;;;;;-6.87;100.00;96962.44;4972887;28;21031;-81
2021/01/19 01:15:56;;;;;;;9.47;6.63;;;;;;;-6.78;100.00;96966.53;4973034;28;20452;-80
2021/01/19 01:18:22;;;;;;;10.27;6.57;;;;;;;-6.64;100.00;96963.63;4972727;28;20491;-81
2021/01/19 01:20:49;;;;;;;8.63;6.13;;;;;;;-6.84;100.00;96957.25;4973222;28;20455;-81
2021/01/19 01:23:16;;;;;;;8.57;6.90;;;;;;;-6.78;100.00;96966.53;4975276;28;20515;-81
2021/01/19 01:25:44;;;;;;;34.70;13.67;;;;;;;-6.83;100.00;96966.59;4976737;28;20898;-81
2021/01/19 01:28:11;;;;;;;29.83;14.37;;;;;;;-6.65;100.00;96964.47;4976568;28;20519;-82
2021/01/19 01:30:39;;;;;;;12.93;8.87;;;;;;;-6.52;100.00;96968.44;4976968;28;20452;-81
2021/01/19 01:33:05;;;;;;;9.93;6.07;;;;;;;-6.51;100.00;96970.97;4976627;28;20949;-81
2021/01/19 01:35:32;;;;;;;10.30;6.77;;;;;;;-6.51;100.00;96964.97;4976435;28;20451;-81
2021/01/19 01:37:59;;;;;;;11.67;6.87;;;;;;;-6.53;100.00;96965.03;4986985;28;20483;-81
2021/01/19 01:40:28;;;;;;;6.93;5.93;;;;;;;-6.59;100.00;96967.75;4996128;28;20522;-81
2021/01/19 01:42:56;;;;;;;9.20;6.03;;;;;;;-6.74;100.00;96963.00;4995636;28;20448;-81
2021/01/19 01:45:25;;;;;;;13.17;9.37;;;;;;;-7.09;100.00;96956.16;4995901;28;20447;-81
2021/01/19 01:47:55;;;;;;;15.70;10.43;;;;;;;-7.15;100.00;96957.13;4995569;28;20451;-81
2021/01/19 01:50:23;;;;;;;14.87;9.43;;;;;;;-7.03;100.00;96956.88;4995913;28;20953;-82
2021/01/19 01:52:50;;;;;;;13.97;10.73;;;;;;;-6.76;100.00;96949.41;4996003;28;20454;-81
2021/01/19 01:55:17;;;;;;;29.60;16.60;;;;;;;-7.15;100.00;96957.13;4995782;28;20454;-81
2021/01/19 01:57:44;;;;;;;21.47;14.57;;;;;;;-7.05;100.00;96956.03;4995505;28;20874;-81
2021/01/19 02:00:15;;;;;;;11.93;9.13;;;;;;;-7.09;100.00;96948.50;4995629;28;21003;-81
2021/01/19 02:02:50;;;;;;;12.20;9.10;;;;;;;-7.00;100.00;96951.66;4995426;28;20478;-81
2021/01/19 02:05:18;;;;;;;21.57;16.07;;;;;;;-6.96;100.00;96943.06;4995437;28;20493;-81
2021/01/19 02:08:00;;;;;;;28.77;23.03;;;;;;;-6.95;100.00;96944.75;4995553;28;21077;-81
2021/01/19 02:10:35;;;;;;;22.80;15.47;;;;;;;-7.15;100.00;96936.69;4995508;28;20439;-81
2021/01/19 02:13:10;;;;;;;26.27;16.13;;;;;;;-7.32;100.00;96929.41;4995579;28;20439;-81
2021/01/19 02:15:45;;;;;;;20.87;15.83;;;;;;;-7.29;100.00;96934.44;4995413;28;20431;-81
2021/01/19 02:18:28;;;;;;;21.90;13.10;;;;;;;-7.24;100.00;96942.88;4995076;28;20439;-81
2021/01/19 02:21:14;;;;;;;17.90;12.03;;;;;;;-6.99;100.00;96935.47;4995661;28;20430;-81
2021/01/19 02:23:56;;;;;;;16.93;12.97;;;;;;;-7.03;100.00;96936.44;4995490;28;20437;-81
2021/01/19 02:27:01;;;;;;;13.60;9.93;;;;;;;-7.21;100.00;96930.00;4994590;28;20432;-81
2021/01/19 02:29:50;;;;;;;14.77;10.17;;;;;;;-7.33;100.00;96937.13;4995193;28;20487;-82
2021/01/19 02:32:24;;;;;;;16.53;11.83;;;;;;;-7.51;100.00;96933.25;4995025;28;20436;-80
2021/01/19 02:35:01;;;;;;;15.87;11.13;;;;;;;-7.57;100.00;96930.81;4994627;28;20509;-81
2021/01/19 02:37:34;;;;;;;18.03;11.43;;;;;;;-7.73;100.00;96930.28;4994738;28;20531;-81
2021/01/19 02:40:06;;;;;;;27.13;17.93;;;;;;;-7.69;100.00;96931.91;4994849;28;20460;-81
2021/01/19 02:42:41;;;;;;;27.63;18.13;;;;;;;-7.91;100.00;96928.94;4994821;28;20490;-81
2021/01/19 02:45:09;;;;;;;37.03;19.30;;;;;;;-7.80;100.00;96928.72;4994839;28;20497;-82
2021/01/19 02:47:37;;;;;;;22.83;13.53;;;;;;;-7.67;100.00;96935.28;4994663;28;20534;-81
2021/01/19 02:50:08;;;;;;;24.00;15.63;;;;;;;-7.76;100.00;96935.44;4995084;28;20447;-81
2021/01/19 02:52:37;;;;;;;27.90;18.80;;;;;;;-7.67;100.00;96938.66;4994917;28;20440;-81
2021/01/19 02:55:05;;;;;;;24.73;16.47;;;;;;;-7.54;100.00;96939.25;4994536;28;20476;-81
2021/01/19 02:57:55;;;;;;;19.37;12.43;;;;;;;-7.44;100.00;96937.34;4994467;28;20443;-81
2021/01/19 03:00:26;;;;;;;13.73;9.77;;;;;;;-7.36;100.00;96935.47;4994382;28;20474;-81
2021/01/19 03:02:54;;;;;;;13.40;8.23;;;;;;;-7.32;100.00;96937.06;4994411;28;20821;-81
2021/01/19 03:05:26;;;;;;;11.80;7.77;;;;;;;-7.30;100.00;96931.94;4994232;28;20482;-81
2021/01/19 03:07:53;;;;;;;9.80;6.77;;;;;;;-7.37;100.00;96932.94;4993518;28;20427;-82
2021/01/19 03:10:20;;;;;;;10.17;7.40;;;;;;;-7.36;100.00;96926.97;4990015;28;20451;-80
2021/01/19 03:12:47;;;;;;;14.00;7.47;;;;;;;-7.45;100.00;96926.31;4991457;28;20506;-80
2021/01/19 03:15:15;;;;;;;11.80;7.47;;;;;;;-7.43;100.00;96931.38;5002409;28;20450;-79
2021/01/19 03:17:43;;;;;;;10.47;7.20;;;;;;;-7.49;100.00;96932.31;5011421;28;20977;-81
2021/01/19 03:20:13;;;;;;;8.37;6.80;;;;;;;-7.45;100.00;96933.97;5006769;28;20478;-81
2021/01/19 03:22:40;;;;;;;9.33;5.90;;;;;;;-7.35;100.00;96932.03;5011286;28;20450;-82
2021/01/19 03:25:08;;;;;;;11.77;8.17;;;;;;;-7.73;100.00;96943.88;5010391;28;20458;-82
2021/01/19 03:27:35;;;;;;;21.13;14.23;;;;;;;-7.82;100.00;96931.31;5011093;28;20438;-82
2021/01/19 03:30:04;;;;;;;19.67;12.87;;;;;;;-7.96;100.00;96931.59;5011033;28;20445;-82
2021/01/19 03:32:31;;;;;;;15.27;10.90;;;;;;;-7.76;100.00;96927.78;5006201;28;20554;-82
2021/01/19 03:34:57;;;;;;;24.17;14.27;;;;;;;-7.75;100.00;96932.03;5011159;28;20450;-81
2021/01/19 03:37:25;;;;;;;19.93;12.20;;;;;;;-7.95;100.00;96938.38;5010663;28;20474;-83
2021/01/19 03:39:52;;;;;;;20.00;11.70;;;;;;;-7.88;100.00;96938.25;5010155;28;20562;-82
2021/01/19 03:42:19;;;;;;;20.00;11.80;;;;;;;-7.94;100.00;96940.06;5011024;28;20899;-82
2021/01/19 03:44:45;;;;;;;39.37;20.83;;;;;;;-7.93;100.00;96940.88;5010761;28;20489;-81
2021/01/19 03:47:12;;;;;;;29.57;17.17;;;;;;;-7.69;100.00;96944.66;5010073;28;20888;-81
2021/01/19 03:49:39;;;;;;;32.60;18.50;;;;;;;-7.71;100.00;96946.41;5010815;28;20848;-81
2021/01/19 03:52:06;;;;;;;116.60;55.40;;;;;;;-7.88;100.00;96948.47;5010220;28;20885;-82
2021/01/19 03:54:34;;;;;;;101.37;50.93;;;;;;;-7.96;100.00;96951.19;5010632;28;20522;-81
2021/01/19 03:57:00;;;;;;;110.97;55.50;;;;;;;-8.13;100.00;96948.94;5010485;28;20442;-82
2021/01/19 03:59:27;;;;;;;255.40;93.93;;;;;;;-8.16;100.00;96949.84;5010193;28;21032;-82
2021/01/19 04:01:54;;;;;;;243.97;91.63;;;;;;;-7.79;100.00;96943.16;5010245;28;20477;-82
2021/01/19 04:04:21;;;;;;;203.30;77.10;;;;;;;-8.00;100.00;96939.31;5010315;28;20458;-83
2021/01/19 04:06:47;;;;;;;174.00;64.77;;;;;;;-7.85;100.00;96943.31;5009883;28;21022;-82
2021/01/19 04:09:14;;;;;;;149.90;60.83;;;;;;;-8.09;100.00;96955.66;5010517;28;20938;-82
2021/01/19 04:11:43;;;;;;;84.27;40.00;;;;;;;-8.29;100.00;96953.47;5010413;28;20446;-82
2021/01/19 04:14:10;;;;;;;75.67;35.53;;;;;;;-8.32;100.00;96950.97;5007845;28;20446;-81
2021/01/19 04:16:37;;;;;;;68.20;34.80;;;;;;;-8.32;100.00;96952.69;5010281;28;20648;-82
2021/01/19 04:19:03;;;;;;;56.40;29.37;;;;;;;-8.51;100.00;96968.34;5009552;28;20488;-82
2021/01/19 04:21:32;;;;;;;43.50;24.23;;;;;;;-8.25;100.00;96964.47;5010488;28;20446;-83
2021/01/19 04:26:56;;;;;;;19.70;14.20;;;;;;;-8.14;100.00;96972.75;5008695;28;20963;-83
2021/01/19 04:29:23;;;;;;;16.73;9.77;;;;;;;-8.22;100.00;96975.44;5009753;28;20466;-82
2021/01/19 04:31:50;;;;;;;15.83;9.90;;;;;;;-8.10;100.00;96969.28;5010241;28;20454;-83
2021/01/19 04:34:16;;;;;;;22.70;11.20;;;;;;;-7.97;100.00;96973.28;5010728;28;20820;-83
2021/01/19 04:36:43;;;;;;;26.17;18.40;;;;;;;-7.95;100.00;96989.41;5009773;28;20451;-83
2021/01/19 04:39:10;;;;;;;55.03;36.77;;;;;;;-8.11;100.00;96977.78;5009940;28;20517;-82
2021/01/19 04:41:40;;;;;;;53.40;34.93;;;;;;;-8.07;100.00;96978.56;5009515;28;20446;-83
2021/01/19 04:44:08;;;;;;;32.97;23.63;;;;;;;-8.07;100.00;96979.44;5010029;28;20453;-82
2021/01/19 04:46:35;;;;;;;36.57;21.83;;;;;;;-8.21;100.00;96981.38;5009700;28;20699;-81
2021/01/19 04:49:04;;;;;;;22.73;14.33;;;;;;;-8.17;100.00;96985.59;5010062;28;20441;-82
2021/01/19 04:51:34;;;;;;;17.57;11.17;;;;;;;-8.43;100.00;96992.00;5009464;28;20453;-82
2021/01/19 04:54:05;;;;;;;31.17;20.77;;;;;;;-8.53;100.00;96990.47;5009432;28;20419;-82
2021/01/19 04:56:32;;;;;;;40.47;28.27;;;;;;;-8.47;100.00;96989.53;5009921;28;20447;-84
2021/01/19 04:58:59;;;;;;;21.73;16.97;;;;;;;-8.50;100.00;96995.50;5008898;28;20446;-83
2021/01/19 05:01:54;;;;;;;26.47;18.40;;;;;;;-8.30;100.00;96990.03;5009647;28;20442;-82
2021/01/19 05:04:45;;;;;;;31.17;21.20;;;;;;;-8.20;100.00;96988.19;5009173;28;20441;-82
2021/01/19 05:07:33;;;;;;;32.47;20.80;;;;;;;-8.23;100.00;96998.44;5011694;28;20442;-82
2021/01/19 05:10:09;;;;;;;30.23;20.33;;;;;;;-8.25;100.00;97000.16;5008995;28;20454;-82
2021/01/19 05:12:41;;;;;;;29.57;20.43;;;;;;;-8.20;100.00;97000.94;5011314;28;20449;-82
2021/01/19 05:15:10;;;;;;;17.33;12.97;;;;;;;-8.20;100.00;96991.56;5011051;28;20442;-83
2021/01/19 05:17:38;;;;;;;23.30;14.57;;;;;;;-8.06;100.00;96996.41;5011600;28;21073;-82
2021/01/19 05:20:06;;;;;;;34.10;21.20;;;;;;;-8.03;100.00;97001.47;5012276;28;20481;-82
2021/01/19 05:22:33;;;;;;;35.83;23.07;;;;;;;-8.33;100.00;97000.28;5010541;28;20438;-82
2021/01/19 05:25:00;;;;;;;51.30;30.23;;;;;;;-8.51;100.00;96996.38;5011696;28;20496;-83
2021/01/19 05:27:27;;;;;;;49.70;29.03;;;;;;;-8.26;100.00;96998.47;5011900;28;20509;-82
2021/01/19 05:30:01;;;;;;;31.67;20.43;;;;;;;-8.80;100.00;97004.47;5012167;28;20826;-82
2021/01/19 05:32:39;;;;;;;32.57;20.63;;;;;;;-8.33;100.00;96995.19;5011680;28;20504;-82
2021/01/19 05:35:17;;;;;;;13.40;11.17;;;;;;;-8.30;100.00;96996.84;5011692;28;20499;-82
2021/01/19 05:37:56;;;;;;;17.13;11.40;;;;;;;-7.94;100.00;96992.78;5011636;28;20482;-82
2021/01/19 05:40:23;;;;;;;21.63;14.57;;;;;;;-7.94;100.00;96991.06;5011944;28;20469;-82
2021/01/19 05:42:50;;;;;;;18.43;13.37;;;;;;;-7.85;100.00;96994.34;5011864;28;20438;-82
2021/01/19 05:45:17;;;;;;;79.60;36.73;;;;;;;-8.01;100.00;96986.97;5011817;28;20545;-82
2021/01/19 05:47:45;;;;;;;101.57;47.50;;;;;;;-8.17;100.00;96985.59;5011383;28;20438;-82
2021/01/19 05:50:14;;;;;;;84.93;43.37;;;;;;;-7.97;100.00;96992.84;5011775;28;20533;-82
2021/01/19 05:52:41;;;;;;;80.63;38.67;;;;;;;-7.95;100.00;96993.66;5011463;28;20446;-82
2021/01/19 05:55:09;;;;;;;64.13;33.33;;;;;;;-8.08;100.00;96987.09;5011420;28;20443;-83
2021/01/19 05:57:36;;;;;;;54.83;30.40;;;;;;;-8.65;100.00;96995.78;5011867;28;20474;-82
2021/01/19 06:00:05;;;;;;;43.27;23.43;;;;;;;-8.35;100.00;96994.38;5011542;28;20513;-82
2021/01/19 06:02:37;;;;;;;23.57;14.13;;;;;;;-8.17;100.00;96988.13;5011514;28;20597;-82
2021/01/19 06:05:10;;;;;;;35.37;20.87;;;;;;;-7.81;100.00;96990.84;5011625;28;20450;-82
2021/01/19 06:07:38;;;;;;;76.70;38.77;;;;;;;-7.91;100.00;96995.28;5011219;28;20441;-82
2021/01/19 06:10:10;;;;;;;70.63;41.27;;;;;;;-8.03;100.00;96996.38;5013637;28;20453;-82
2021/01/19 06:12:37;;;;;;;27.87;19.07;;;;;;;-7.85;100.00;97000.28;5015380;28;20442;-82
2021/01/19 06:15:05;;;;;;;16.03;11.27;;;;;;;-7.55;100.00;97003.97;5014895;28;20891;-82
2021/01/19 06:17:32;;;;;;;13.53;8.43;;;;;;;-7.30;100.00;96995.78;5014929;28;20458;-82
2021/01/19 06:20:01;;;;;;;25.80;17.70;;;;;;;-7.39;100.00;96998.53;5014870;28;20482;-82
2021/01/19 06:22:29;;;;;;;22.87;14.33;;;;;;;-7.25;100.00;96996.50;5014717;28;20456;-82
2021/01/19 06:24:57;;;;;;;59.37;37.30;;;;;;;-7.60;100.00;97010.84;5014664;28;20446;-82
2021/01/19 06:27:30;;;;;;;91.03;43.20;;;;;;;-7.94;100.00;97006.38;5014951;28;20450;-82
2021/01/19 06:30:12;;;;;;;39.77;21.47;;;;;;;-7.66;100.00;97016.91;5014870;28;20470;-82
2021/01/19 06:32:46;;;;;;;21.03;13.10;;;;;;;-7.45;100.00;97014.81;5014544;28;20458;-82
2021/01/19 06:35:15;;;;;;;68.23;40.50;;;;;;;-7.97;100.00;97021.75;5014499;28;20474;-82
2021/01/19 06:37:44;;;;;;;69.40;39.83;;;;;;;-8.28;100.00;97011.25;5014412;28;21022;-82
2021/01/19 06:40:14;;;;;;;50.60;31.80;;;;;;;-8.19;100.00;97015.34;5014745;28;20536;-82
2021/01/19 06:42:41;;;;;;;52.33;30.60;;;;;;;-7.62;100.00;97021.97;5014499;28;20450;-82
2021/01/19 06:45:10;;;;;;;53.73;35.53;;;;;;;-7.70;100.00;97020.41;5014313;28;20517;-82
2021/01/19 06:47:42;;;;;;;53.33;35.73;;;;;;;-7.63;100.00;97010.91;5014381;28;20452;-82
2021/01/19 06:50:09;;;;;;;65.93;42.07;;;;;;;-7.40;100.00;97012.19;5014531;28;20463;-82
2021/01/19 06:52:41;;;;;;;60.80;38.30;;;;;;;-7.25;100.00;97022.91;5014212;28;20442;-82
2021/01/19 06:55:21;;;;;;;76.30;41.90;;;;;;;-7.02;100.00;97022.41;5014185;28;20953;-82
2021/01/19 06:58:00;;;;;;;63.90;37.80;;;;;;;-6.96;100.00;97029.13;5014158;28;20450;-82
2021/01/19 07:00:41;;;;;;;55.73;34.77;;;;;;;-6.83;100.00;97027.94;5014067;28;20541;-82
2021/01/19 07:03:29;;;;;;;59.77;37.37;;;;;;;-6.53;100.00;97028.97;5013843;28;20431;-82
2021/01/19 07:06:01;;;;;;;64.33;34.57;;;;;;;-6.67;100.00;97027.63;5009539;28;20553;-83
2021/01/19 07:09:14;;;;;;;37.47;25.77;;;;;;;-6.47;100.00;97031.38;5013992;28;20488;-82
2021/01/19 07:12:17;;;;;;;31.93;19.33;;;;;;;-6.11;100.00;97043.31;5013648;28;20423;-82
2021/01/19 07:14:58;;;;;;;11.63;9.17;;;;;;;-5.87;100.00;97039.25;5014287;28;20821;-83
2021/01/19 07:18:03;;;;;;;30.67;19.53;;;;;;;-5.48;100.00;97044.19;5013823;28;20500;-83
2021/01/19 07:20:31;;;;;;;36.23;25.00;;;;;;;-5.34;100.00;97049.78;5013619;28;20466;-83
2021/01/19 07:23:02;;;;;;;24.93;16.80;;;;;;;-5.09;100.00;97049.91;5013373;28;20989;-83
2021/01/19 07:25:29;;;;;;;33.83;23.07;;;;;;;-4.97;100.00;97061.56;5013804;28;20435;-84
2021/01/19 07:27:58;;;;;;;32.53;18.60;;;;;;;-4.74;100.00;97063.44;5013505;28;20456;-84
2021/01/19 07:30:25;;;;;;;32.27;20.00;;;;;;;-4.93;100.00;97063.97;5013657;28;20557;-84
2021/01/19 07:32:54;;;;;;;39.83;21.73;;;;;;;-4.91;100.00;97069.91;5013379;28;20442;-84
2021/01/19 07:35:26;;;;;;;33.73;20.77;;;;;;;-4.75;100.00;97060.03;5013520;28;20450;-84
2021/01/19 07:37:59;;;;;;;20.50;12.93;;;;;;;-4.51;100.00;97057.59;5013172;28;20568;-84
2021/01/19 07:40:26;;;;;;;25.43;16.87;;;;;;;-4.10;100.00;97052.00;5013639;28;20462;-84
2021/01/19 07:42:54;;;;;;;70.67;40.17;;;;;;;-3.66;100.00;97062.53;5013048;28;20454;-84
2021/01/19 07:45:33;;;;;;;35.77;21.03;;;;;;;-3.50;100.00;97052.53;5013305;28;20438;-84
2021/01/19 07:48:07;;;;;;;27.27;17.80;;;;;;;-3.17;100.00;97057.41;5013566;28;20559;-82
2021/01/19 07:50:42;;;;;;;14.07;9.80;;;;;;;-3.24;100.00;97045.66;5013308;28;21009;-81
2021/01/19 07:53:09;;;;;;;12.53;9.33;;;;;;;-3.24;100.00;97045.66;5013070;28;20429;-81
2021/01/19 07:55:45;;;;;;;10.87;7.50;;;;;;;-3.32;100.00;97058.78;5013379;28;20443;-81
2021/01/19 07:58:16;;;;;;;10.17;7.77;;;;;;;-3.36;100.00;97055.50;5012982;28;20442;-81
2021/01/19 08:00:46;;;;;;;13.23;8.07;;;;;;;-3.27;100.00;97061.19;5013059;28;20262;-81
2021/01/19 08:03:13;;;;;;;12.73;7.77;;;;;;;-3.02;100.00;97063.69;5013179;28;20223;-81
2021/01/19 08:05:40;;;;;;;10.67;7.90;;;;;;;-2.74;100.00;97068.66;5012910;28;20529;-82
2021/01/19 08:08:14;;;;;;;12.47;9.13;;;;;;;-3.02;100.00;97050.84;5012965;28;20203;-82
2021/01/19 08:10:41;;;;;;;8.87;7.30;;;;;;;-3.29;100.00;97061.25;5012902;28;20201;-82
2021/01/19 08:13:18;;;;;;;11.10;7.33;;;;;;;-3.30;100.00;97064.69;5013216;28;20206;-82
2021/01/19 08:16:01;;;;;;;6.53;5.47;;;;;;;-2.96;100.00;97066.06;5013017;28;20218;-81
2021/01/19 08:18:38;;;;;;;8.60;4.73;;;;;;;-3.15;100.00;97061.59;5013098;28;20211;-84
2021/01/19 08:21:07;;;;;;;9.00;7.43;;;;;;;-3.19;100.00;97074.59;5012783;28;20309;-84
2021/01/19 08:23:35;;;;;;;11.00;6.83;;;;;;;-2.77;100.00;97076.50;5013208;28;20243;-83
2021/01/19 08:26:06;;;;;;;6.13;4.90;;;;;;;-2.88;100.00;97074.31;5012894;28;20199;-82
2021/01/19 08:28:33;;;;;;;6.70;4.57;;;;;;;-2.77;100.00;97073.91;5012516;28;20199;-83
2021/01/19 08:31:01;;;;;;;8.67;6.23;;;;;;;-2.69;100.00;97072.75;5012698;28;20230;-83
2021/01/19 08:33:28;;;;;;;12.90;7.07;;;;;;;-2.64;100.00;97078.53;5012259;28;20235;-84
2021/01/19 08:35:56;;;;;;;14.60;9.07;;;;;;;-2.58;100.00;97076.66;5013120;28;20233;-83
2021/01/19 08:38:24;;;;;;;9.60;6.30;;;;;;;-2.54;100.00;97073.06;5012173;28;20250;-83
2021/01/19 08:40:51;;;;;;;10.33;7.23;;;;;;;-1.82;100.00;97077.94;5012391;28;20318;-83
2021/01/19 08:43:18;;;;;;;11.50;8.87;;;;;;;-1.65;100.00;97075.50;5012551;28;20562;-82
2021/01/19 08:45:45;;;;;;;7.13;6.30;;;;;;;-1.91;100.00;97079.13;5012606;28;20269;-83
2021/01/19 08:48:13;;;;;;;8.10;5.27;;;;;;;-1.96;100.00;97086.22;5011983;28;20200;-83
2021/01/19 08:50:41;;;;;;;8.40;6.23;;;;;;;-1.61;100.00;97077.03;5012904;28;20279;-83
2021/01/19 08:53:09;;;;;;;10.17;5.87;;;;;;;-1.58;100.00;97082.06;5012200;28;20195;-83
2021/01/19 08:55:36;;;;;;;7.83;5.63;;;;;;;-1.08;100.00;97088.53;5012065;28;20286;-83
2021/01/19 08:58:04;;;;;;;5.93;5.33;;;;;;;-1.67;100.00;97075.53;5012136;28;20206;-83
2021/01/19 09:00:33;;;;;;;8.40;5.10;;;;;;;-1.81;100.00;97083.00;5012218;28;20219;-83
2021/01/19 09:03:00;;;;;;;11.87;5.87;;;;;;;-1.29;100.00;97088.56;5011832;28;20204;-83
2021/01/19 09:05:30;;;;;;;7.83;5.43;;;;;;;-0.99;100.00;97088.16;5012225;28;20207;-82
2021/01/19 09:07:58;;;;;;;8.23;5.97;;;;;;;-1.17;100.00;97086.38;5012186;28;20286;-83
2021/01/19 09:10:27;;;;;;;7.20;5.83;;;;;;;-1.30;100.00;97081.72;5011909;28;20234;-83
2021/01/19 09:12:56;;;;;;;6.77;5.87;;;;;;;-0.87;100.00;97082.41;5011923;28;20249;-83
2021/01/19 09:15:23;;;;;;;6.60;5.23;;;;;;;-0.90;100.00;97090.31;5012133;28;20227;-83
2021/01/19 09:17:55;;;;;;;6.07;5.40;;;;;;;-0.74;100.00;97091.28;5011685;28;20203;-83
2021/01/19 09:20:23;;;;;;;11.60;5.63;;;;;;;-1.03;100.00;97078.88;5012177;28;20650;-83
2021/01/19 09:22:52;;;;;;;6.53;5.07;;;;;;;-0.75;100.00;97073.31;5012169;28;20199;-83
2021/01/19 09:25:21;;;;;;;7.07;5.27;;;;;;;-0.34;100.00;97078.31;5011940;28;20203;-82
2021/01/19 09:27:49;;;;;;;9.23;5.90;;;;;;;-0.60;100.00;97076.94;5011848;28;20199;-82
2021/01/19 09:30:18;;;;;;;5.43;4.67;;;;;;;-0.50;100.00;97073.00;5011884;28;20742;-82
2021/01/19 09:32:46;;;;;;;8.17;4.53;;;;;;;-0.50;100.00;97073.00;5011800;28;20322;-82
2021/01/19 09:35:15;;;;;;;6.83;3.90;;;;;;;-1.06;100.00;97069.50;5011927;28;20203;-82
2021/01/19 09:37:42;;;;;;;5.57;4.93;;;;;;;-0.80;100.00;97065.75;5011398;28;20231;-83
2021/01/19 09:40:11;;;;;;;7.77;6.17;;;;;;;-0.06;100.00;97057.16;5012051;28;20234;-83
2021/01/19 09:42:39;;;;;;;7.40;5.97;;;;;;;0.00;100.00;97054.28;5011660;28;20196;-83
2021/01/19 09:45:10;;;;;;;6.57;5.23;;;;;;;0.18;100.00;97047.38;5014115;28;20320;-83
2021/01/19 09:47:40;;;;;;;5.83;5.20;;;;;;;-0.05;100.00;97038.16;5015468;28;20782;-82
2021/01/19 09:50:09;;;;;;;6.33;5.30;;;;;;;0.16;100.00;97041.44;5015832;28;20195;-82
2021/01/19 09:52:36;;;;;;;8.33;4.73;;;;;;;0.28;100.00;97035.69;5015286;28;20768;-83
2021/01/19 09:55:08;;;;;;;9.37;5.60;;;;;;;0.58;100.00;97041.03;5015463;28;20261;-82
2021/01/19 09:57:36;;;;;;;6.27;4.63;;;;;;;0.40;100.00;97042.81;5015467;28;20278;-82
2021/01/19 10:00:04;;;;;;;6.03;5.43;;;;;;;-0.04;100.00;97043.25;5015620;28;20227;-82
2021/01/19 10:02:32;;;;;;;8.03;5.03;;;;;;;0.18;100.00;97035.28;5015117;28;20644;-83
2021/01/19 10:04:59;;;;;;;7.00;5.47;;;;;;;0.74;100.00;97029.91;5015246;28;20196;-83
2021/01/19 10:07:29;;;;;;;10.33;5.57;;;;;;;0.61;100.00;97035.69;5015151;28;20203;-83
2021/01/19 10:10:11;;;;;;;6.60;5.90;;;;;;;0.80;100.00;97027.00;5015454;28;20207;-83
2021/01/19 10:12:40;;;;;;;7.33;5.53;;;;;;;0.85;100.00;97028.41;5014978;28;20183;-83
2021/01/19 10:15:08;;;;;;;8.63;6.10;;;;;;;0.78;100.00;97021.91;5015094;28;20242;-83
2021/01/19 10:17:36;;;;;;;12.97;6.30;;;;;;;1.40;100.00;97017.72;5014652;28;20199;-83
2021/01/19 10:20:12;;;;;;;7.27;5.37;;;;;;;1.25;100.00;97007.34;5014928;28;20220;-84
2021/01/19 10:22:40;;;;;;;7.80;6.23;;;;;;;1.08;100.00;96997.91;5015171;28;20270;-84
2021/01/19 10:25:10;;;;;;;13.47;6.60;;;;;;;1.21;100.00;96992.88;5015124;28;20581;-84
2021/01/19 10:27:42;;;;;;;7.63;6.90;;;;;;;1.24;100.00;96990.97;5014732;28;20257;-84
2021/01/19 10:30:11;;;;;;;6.77;5.67;;;;;;;1.60;100.00;96987.28;5014709;28;20249;-84
2021/01/19 10:32:49;;;;;;;11.10;4.80;;;;;;;1.26;100.00;96989.13;5014921;28;20203;-84
2021/01/19 10:35:26;;;;;;;6.23;4.83;;;;;;;0.99;100.00;96985.44;5014790;28;20207;-84
2021/01/19 10:37:55;;;;;;;8.20;5.67;;;;;;;0.90;100.00;96984.19;5014199;28;20231;-83
2021/01/19 10:40:22;;;;;;;5.67;4.57;;;;;;;0.81;100.00;96982.09;5014585;28;20219;-84
2021/01/19 10:42:50;;;;;;;9.90;6.20;;;;;;;1.27;100.00;96979.63;5014443;28;20690;-84
2021/01/19 10:45:28;;;;;;;7.47;5.80;;;;;;;1.97;100.00;96975.63;5014297;28;20191;-84
2021/01/19 10:47:58;;;;;;;8.27;6.10;;;;;;;2.08;100.00;96965.50;5014664;28;20659;-84
2021/01/19 10:50:30;;;;;;;7.03;5.23;;;;;;;1.63;100.00;96971.56;5014566;28;20191;-84
2021/01/19 10:52:58;;;;;;;8.43;6.90;;;;;;;2.38;100.00;96968.03;5014356;28;20577;-84
2021/01/19 10:55:26;;;;;;;7.07;5.37;;;;;;;2.10;100.00;96958.47;5014236;28;20566;-84
2021/01/19 10:57:56;;;;;;;8.93;6.07;;;;;;;2.54;100.00;96957.59;5014514;28;20223;-84
2021/01/19 11:00:24;;;;;;;8.43;5.37;;;;;;;1.75;100.00;96955.31;5014561;28;20250;-84
2021/01/19 11:02:50;;;;;;;5.50;4.00;;;;;;;1.16;100.00;96957.72;5013884;28;20203;-84
2021/01/19 11:05:17;;;;;;;8.93;5.23;;;;;;;2.26;100.00;96945.44;5014192;28;20199;-84
2021/01/19 11:07:45;;;;;;;7.03;5.23;;;;;;;2.80;100.00;96947.38;5013988;28;20578;-84
2021/01/19 11:10:14;;;;;;;8.40;6.07;;;;;;;2.19;100.00;96945.91;5014033;28;20196;-84
2021/01/19 11:12:41;;;;;;;6.87;4.83;;;;;;;2.21;100.00;96942.25;5013953;28;20704;-83
2021/01/19 11:15:11;;;;;;;7.03;6.00;;;;;;;1.98;100.00;96940.22;5014254;28;20203;-84
2021/01/19 11:17:38;;;;;;;5.90;5.20;;;;;;;2.09;100.00;96943.00;5013838;28;20708;-85
2021/01/19 11:20:06;;;;;;;6.30;4.83;;;;;;;2.58;100.00;96946.09;5013887;28;20227;-84
2021/01/19 11:22:32;;;;;;;8.37;6.27;;;;;;;3.30;100.00;96940.81;5013614;28;20203;-84
2021/01/19 11:24:59;;;;;;;9.10;5.73;;;;;;;3.00;100.00;96939.19;5014107;28;20199;-84
2021/01/19 11:27:27;;;;;;;9.73;5.00;;;;;;;2.14;100.00;96930.59;5013740;28;20206;-84
2021/01/19 11:29:54;;;;;;;8.73;7.60;;;;;;;2.19;100.00;96938.13;5013645;28;20286;-84
2021/01/19 11:32:22;;;;;;;9.90;5.90;;;;;;;1.67;100.00;96932.44;5013715;28;20607;-84
2021/01/19 11:34:49;;;;;;;8.23;6.17;;;;;;;1.46;100.00;96931.06;5013701;28;20196;-84